createdAt,value
2023-08-17T00:02:15.616Z,1.38
2023-08-17T00:04:44.247Z,1.80
2023-08-17T00:07:12.917Z,1.70
2023-08-17T00:09:43.550Z,1.73
2023-08-17T00:12:11.992Z,1.70
2023-08-17T00:14:40.602Z,1.75
2023-08-17T00:17:09.214Z,1.80
2023-08-17T00:19:37.821Z,1.65
2023-08-17T00:22:06.612Z,1.75
2023-08-17T00:24:35.193Z,2.13
2023-08-17T00:27:05.704Z,1.90
2023-08-17T00:29:36.190Z,1.73
2023-08-17T00:32:05.368Z,1.75
2023-08-17T00:34:33.996Z,1.92
2023-08-17T00:37:03.143Z,1.90
2023-08-17T00:39:31.846Z,1.85
2023-08-17T00:42:00.512Z,1.83
2023-08-17T00:44:30.526Z,2.13
2023-08-17T00:46:59.520Z,1.45
2023-08-17T00:49:28.188Z,1.60
2023-08-17T00:51:57.088Z,2.03
2023-08-17T00:54:27.976Z,1.73
2023-08-17T00:56:56.951Z,1.52
2023-08-17T00:59:26.382Z,1.75
2023-08-17T01:01:56.978Z,2.00
2023-08-17T01:04:25.704Z,1.63
2023-08-17T01:06:54.301Z,1.90
2023-08-17T01:09:23.007Z,1.90
2023-08-17T01:12:00.837Z,1.65
2023-08-17T01:14:37.044Z,1.67
2023-08-17T01:17:14.617Z,1.90
2023-08-17T01:19:45.284Z,2.33
2023-08-17T01:22:20.064Z,2.15
2023-08-17T01:27:18.501Z,2.17
2023-08-17T01:29:46.842Z,2.65
2023-08-17T01:32:25.371Z,2.50
2023-08-17T01:35:03.660Z,2.15
2023-08-17T01:37:36.741Z,2.25
2023-08-17T01:40:08.699Z,2.08
2023-08-17T01:42:38.566Z,2.63
2023-08-17T01:45:08.429Z,2.67
2023-08-17T01:47:38.316Z,2.35
2023-08-17T01:50:07.934Z,3.10
2023-08-17T01:52:37.021Z,3.25
2023-08-17T01:55:08.434Z,2.88
2023-08-17T01:57:38.529Z,3.10
2023-08-17T02:00:07.997Z,2.78
2023-08-17T02:02:43.453Z,2.85
2023-08-17T02:05:13.887Z,2.47
2023-08-17T02:07:42.513Z,2.67
2023-08-17T02:10:12.872Z,3.05
2023-08-17T02:12:41.484Z,3.08
2023-08-17T02:15:11.198Z,2.97
2023-08-17T02:17:39.930Z,3.10
2023-08-17T02:20:10.513Z,3.05
2023-08-17T02:22:39.134Z,2.95
2023-08-17T02:25:09.197Z,3.50
2023-08-17T02:27:39.175Z,3.58
2023-08-17T02:30:08.948Z,3.30
2023-08-17T02:32:37.309Z,3.80
2023-08-17T02:35:06.424Z,3.92
2023-08-17T02:37:35.100Z,3.63
2023-08-17T02:40:04.005Z,4.43
2023-08-17T02:42:32.920Z,4.05
2023-08-17T02:45:03.241Z,3.80
2023-08-17T02:47:31.973Z,3.67
2023-08-17T02:50:00.658Z,4.32
2023-08-17T02:52:29.642Z,4.18
2023-08-17T02:54:58.416Z,4.55
2023-08-17T02:57:27.307Z,5.25
2023-08-17T02:59:56.215Z,3.97
2023-08-17T03:02:26.414Z,3.92
2023-08-17T03:04:55.210Z,4.97
2023-08-17T03:07:24.770Z,4.55
2023-08-17T03:09:53.579Z,5.90
2023-08-17T03:12:22.202Z,4.75
2023-08-17T03:14:50.773Z,5.43
2023-08-17T03:17:19.444Z,6.50
2023-08-17T03:19:49.420Z,7.00
2023-08-17T03:22:18.859Z,7.13
2023-08-17T03:24:47.536Z,7.93
2023-08-17T03:27:16.160Z,7.97
2023-08-17T03:29:44.833Z,8.18
2023-08-17T03:32:13.453Z,8.93
2023-08-17T03:34:42.135Z,9.38
2023-08-17T03:37:13.337Z,9.02
2023-08-17T03:39:42.924Z,10.80
2023-08-17T03:42:11.517Z,10.77
2023-08-17T03:44:40.218Z,10.13
2023-08-17T03:47:08.801Z,10.10
2023-08-17T03:49:37.396Z,11.05
2023-08-17T03:52:06.567Z,11.93
2023-08-17T03:54:36.627Z,11.90
2023-08-17T03:57:05.481Z,10.45
2023-08-17T03:59:34.123Z,10.40
2023-08-17T04:02:02.827Z,10.30
2023-08-17T04:04:31.523Z,11.02
2023-08-17T04:07:00.780Z,11.00
2023-08-17T04:09:29.436Z,11.38
2023-08-17T04:11:59.435Z,11.80
2023-08-17T04:14:28.080Z,12.18
2023-08-17T04:16:59.104Z,11.77
2023-08-17T04:19:28.060Z,11.48
2023-08-17T04:21:56.651Z,11.10
2023-08-17T04:24:25.335Z,11.38
2023-08-17T04:26:54.245Z,11.98
2023-08-17T04:29:24.304Z,12.15
2023-08-17T04:31:53.896Z,12.90
2023-08-17T04:34:23.087Z,13.98
2023-08-17T04:36:51.797Z,13.82
2023-08-17T04:39:20.790Z,12.98
2023-08-17T04:41:49.032Z,12.38
2023-08-17T04:44:24.289Z,13.30
2023-08-17T04:46:53.450Z,14.00
2023-08-17T04:49:22.106Z,13.38
2023-08-17T04:51:50.758Z,13.52
2023-08-17T04:54:19.421Z,11.70
2023-08-17T04:56:48.279Z,13.82
2023-08-17T04:59:16.938Z,13.40
2023-08-17T05:01:46.972Z,12.55
2023-08-17T05:04:15.702Z,11.40
2023-08-17T05:06:45.781Z,12.07
2023-08-17T05:09:14.720Z,14.00
2023-08-17T05:11:43.482Z,12.63
2023-08-17T05:14:13.382Z,12.55
2023-08-17T05:16:42.140Z,12.63
2023-08-17T05:19:12.149Z,12.27
2023-08-17T05:21:40.628Z,13.25
2023-08-17T05:24:10.761Z,12.82
2023-08-17T05:26:39.612Z,13.50
2023-08-17T05:29:08.446Z,13.02
2023-08-17T05:31:41.736Z,14.38
2023-08-17T05:34:13.085Z,13.73
2023-08-17T05:36:42.459Z,13.20
2023-08-17T05:39:11.216Z,13.00
2023-08-17T05:41:39.979Z,13.38
2023-08-17T05:44:08.892Z,12.63
2023-08-17T05:46:37.715Z,13.98
2023-08-17T05:49:07.243Z,12.73
2023-08-17T05:51:37.301Z,11.73
2023-08-17T05:54:07.105Z,11.93
2023-08-17T05:56:35.759Z,10.45
2023-08-17T05:59:04.527Z,10.55
2023-08-17T06:01:33.316Z,10.13
2023-08-17T06:04:02.493Z,10.50
2023-08-17T06:06:32.159Z,8.55
2023-08-17T06:09:02.150Z,8.38
2023-08-17T06:11:30.730Z,8.15
2023-08-17T06:13:59.362Z,7.05
2023-08-17T06:16:28.097Z,9.18
2023-08-17T06:18:56.765Z,7.90
2023-08-17T06:21:25.437Z,7.75
2023-08-17T06:23:54.054Z,7.20
2023-08-17T06:26:23.764Z,7.80
2023-08-17T06:28:52.151Z,7.75
2023-08-17T06:31:20.844Z,7.70
2023-08-17T06:33:49.482Z,7.28
2023-08-17T06:36:18.102Z,7.50
2023-08-17T06:38:46.681Z,7.70
2023-08-17T06:41:15.269Z,7.65
2023-08-17T06:43:45.254Z,8.07
2023-08-17T06:46:13.893Z,9.18
2023-08-17T06:48:43.146Z,8.48
2023-08-17T06:51:11.774Z,9.52
2023-08-17T06:53:40.543Z,9.35
2023-08-17T06:56:08.878Z,11.32
2023-08-17T06:58:37.482Z,11.35
2023-08-17T07:01:07.165Z,10.10
2023-08-17T07:03:35.819Z,10.50
2023-08-17T07:06:05.061Z,11.52
2023-08-17T07:08:34.082Z,10.82
2023-08-17T07:11:05.065Z,10.18
2023-08-17T07:13:33.802Z,11.82
2023-08-17T07:16:02.580Z,12.25
2023-08-17T07:18:32.666Z,11.55
2023-08-17T07:21:01.050Z,12.32
2023-08-17T07:23:29.687Z,11.93
2023-08-17T07:25:58.180Z,12.55
2023-08-17T07:28:26.819Z,12.40
2023-08-17T07:30:55.431Z,12.30
2023-08-17T07:33:24.119Z,12.07
2023-08-17T07:35:55.645Z,11.82
2023-08-17T07:38:24.377Z,11.10
2023-08-17T07:40:52.711Z,10.98
2023-08-17T07:43:21.355Z,9.43
2023-08-17T07:45:56.340Z,11.40
2023-08-17T07:48:25.076Z,10.50
2023-08-17T07:50:55.723Z,11.10
2023-08-17T07:53:24.386Z,9.73
2023-08-17T07:55:55.391Z,9.63
2023-08-17T07:58:24.882Z,9.65
2023-08-17T08:00:54.040Z,7.50
2023-08-17T08:03:23.262Z,9.45
2023-08-17T08:05:52.203Z,9.48
2023-08-17T08:08:22.241Z,8.32
2023-08-17T08:10:50.915Z,9.77
2023-08-17T08:13:19.524Z,9.35
2023-08-17T08:15:48.285Z,9.05
2023-08-17T08:18:16.959Z,8.35
2023-08-17T08:20:45.345Z,8.13
2023-08-17T08:23:14.139Z,8.98
2023-08-17T08:25:43.802Z,9.30
2023-08-17T08:28:12.427Z,8.63
2023-08-17T08:30:41.193Z,7.75
2023-08-17T08:33:09.818Z,7.70
2023-08-17T08:35:38.466Z,7.97
2023-08-17T08:38:06.853Z,8.00
2023-08-17T08:40:39.232Z,7.45
2023-08-17T08:43:10.648Z,7.53
2023-08-17T08:45:45.428Z,5.88
2023-08-17T08:48:15.821Z,6.13
2023-08-17T08:50:45.089Z,5.18
2023-08-17T08:53:16.566Z,5.38
2023-08-17T08:55:49.697Z,5.65
2023-08-17T08:58:20.805Z,6.57
2023-08-17T09:00:49.771Z,6.90
2023-08-17T09:03:21.344Z,6.18
2023-08-17T09:05:51.530Z,7.43
2023-08-17T09:08:24.945Z,6.20
2023-08-17T09:10:53.632Z,6.18
2023-08-17T09:13:23.371Z,6.53
2023-08-17T09:15:52.082Z,6.05
2023-08-17T09:18:21.827Z,5.50
2023-08-17T09:20:53.643Z,5.45
2023-08-17T09:23:24.084Z,4.93
2023-08-17T09:25:59.059Z,4.50
2023-08-17T09:28:31.226Z,5.03
2023-08-17T09:31:01.638Z,5.97
2023-08-17T09:33:32.071Z,4.10
2023-08-17T09:36:01.877Z,4.50
2023-08-17T09:38:30.846Z,3.55
2023-08-17T09:41:00.518Z,4.28
2023-08-17T09:43:34.578Z,4.22
2023-08-17T09:46:04.878Z,3.33
2023-08-17T09:48:34.072Z,3.35
2023-08-17T09:51:03.496Z,3.10
2023-08-17T09:53:36.380Z,3.60
2023-08-17T09:56:06.838Z,2.90
2023-08-17T09:58:36.573Z,3.47
2023-08-17T10:01:07.428Z,3.05
2023-08-17T10:03:37.334Z,3.30
2023-08-17T10:06:08.356Z,3.13
2023-08-17T10:08:43.909Z,3.22
2023-08-17T10:11:14.300Z,2.65
2023-08-17T10:13:50.177Z,2.78
2023-08-17T10:16:30.298Z,2.30
2023-08-17T10:19:07.341Z,2.30
2023-08-17T10:21:41.641Z,2.45
2023-08-17T10:24:11.024Z,1.90
2023-08-17T10:26:40.188Z,2.55
2023-08-17T10:29:15.412Z,2.30
2023-08-17T10:31:47.830Z,2.10
2023-08-17T10:34:17.251Z,3.00
2023-08-17T10:36:46.732Z,2.13
2023-08-17T10:39:28.666Z,2.38
2023-08-17T10:41:59.298Z,2.63
2023-08-17T10:44:47.456Z,2.35
2023-08-17T10:47:24.275Z,2.00
2023-08-17T10:49:53.552Z,1.92
2023-08-17T10:52:29.856Z,2.25
2023-08-17T10:55:00.894Z,1.80
2023-08-17T10:57:34.604Z,1.60
2023-08-17T11:02:55.833Z,1.80
2023-08-17T11:05:43.479Z,1.85
2023-08-17T11:08:16.945Z,2.30
2023-08-17T11:10:51.778Z,2.20
2023-08-17T11:13:20.518Z,1.92
2023-08-17T11:15:50.466Z,1.85
2023-08-17T11:18:18.995Z,1.70
2023-08-17T11:20:48.072Z,2.20
2023-08-17T11:23:16.934Z,2.20
2023-08-17T11:25:45.901Z,1.77
2023-08-17T11:28:15.824Z,2.20
2023-08-17T11:30:47.739Z,2.53
2023-08-17T11:33:18.014Z,1.58
2023-08-17T11:35:46.941Z,1.90
2023-08-17T11:38:15.562Z,2.08
2023-08-17T11:40:44.554Z,1.92
2023-08-17T11:43:13.310Z,1.80
2023-08-17T11:45:42.738Z,1.90
2023-08-17T11:48:11.766Z,2.20
2023-08-17T11:50:42.831Z,1.88
2023-08-17T11:53:11.238Z,2.22
2023-08-17T11:55:39.871Z,2.10
2023-08-17T11:58:10.294Z,1.98
2023-08-17T12:00:42.087Z,2.35
2023-08-17T12:03:10.981Z,2.42
2023-08-17T12:05:41.032Z,2.53
2023-08-17T12:08:10.855Z,2.65
2023-08-17T12:10:40.338Z,2.65
2023-08-17T12:13:12.783Z,2.60
2023-08-17T12:15:41.496Z,2.35
2023-08-17T12:18:10.433Z,2.00
2023-08-17T12:20:39.345Z,2.08
2023-08-17T12:23:09.397Z,2.10
2023-08-17T12:25:38.086Z,2.08
2023-08-17T12:28:07.324Z,1.95
2023-08-17T12:30:37.349Z,1.65
2023-08-17T12:33:06.749Z,3.50
2023-08-17T12:35:35.316Z,2.60
2023-08-17T12:38:03.959Z,1.98
2023-08-17T12:40:33.953Z,1.80
2023-08-17T12:43:02.608Z,1.95
2023-08-17T12:45:32.164Z,1.90
2023-08-17T12:48:01.579Z,1.67
2023-08-17T12:50:30.285Z,1.80
2023-08-17T12:52:58.914Z,2.45
2023-08-17T12:55:27.598Z,1.55
2023-08-17T12:58:01.562Z,2.05
2023-08-17T13:02:59.095Z,2.25
2023-08-17T13:05:27.758Z,2.58
2023-08-17T13:07:56.391Z,2.67
2023-08-17T13:10:25.163Z,2.10
2023-08-17T13:12:56.005Z,2.20
2023-08-17T13:15:26.515Z,2.25
2023-08-17T13:17:55.324Z,2.22
2023-08-17T13:20:24.249Z,1.92
2023-08-17T13:22:52.659Z,2.47
2023-08-17T13:25:21.370Z,2.10
2023-08-17T13:27:49.984Z,2.00
2023-08-17T13:30:18.813Z,1.98
2023-08-17T13:32:48.966Z,2.08
2023-08-17T13:35:17.873Z,1.88
2023-08-17T13:37:46.505Z,2.10
2023-08-17T13:40:16.125Z,2.00
2023-08-17T13:42:44.717Z,1.73
2023-08-17T13:45:13.342Z,2.20
2023-08-17T13:47:42.033Z,1.27
2023-08-17T13:50:12.658Z,1.77
2023-08-17T13:52:41.308Z,1.90
2023-08-17T13:55:10.592Z,1.80
2023-08-17T13:57:39.277Z,1.73
2023-08-17T14:00:09.729Z,2.30
2023-08-17T14:02:38.480Z,1.95
2023-08-17T14:05:08.123Z,2.10
2023-08-17T14:07:37.855Z,1.77
2023-08-17T14:10:09.423Z,2.20
2023-08-17T14:12:39.715Z,2.20
2023-08-17T14:15:09.437Z,2.00
2023-08-17T14:17:38.341Z,1.98
2023-08-17T14:20:08.096Z,1.83
2023-08-17T14:22:38.077Z,1.83
2023-08-17T14:25:07.728Z,1.75
2023-08-17T14:27:36.493Z,2.00
2023-08-17T14:30:05.761Z,1.70
2023-08-17T14:32:35.547Z,1.38
2023-08-17T14:35:04.800Z,1.80
2023-08-17T14:37:34.230Z,1.40
2023-08-17T14:40:04.327Z,1.48
2023-08-17T14:42:33.189Z,1.75
2023-08-17T14:45:07.179Z,1.90
2023-08-17T14:47:36.371Z,1.77
2023-08-17T14:50:05.274Z,1.70
2023-08-17T14:52:34.565Z,1.73
2023-08-17T14:55:05.669Z,1.88
2023-08-17T14:57:34.375Z,1.80
2023-08-17T15:00:03.564Z,1.48
2023-08-17T15:02:32.309Z,1.75
2023-08-17T15:05:01.029Z,1.70
2023-08-17T15:07:30.104Z,1.63
2023-08-17T15:09:58.968Z,1.33
2023-08-17T15:12:29.165Z,1.80
2023-08-17T15:14:57.956Z,1.75
2023-08-17T15:17:26.931Z,1.90
2023-08-17T15:19:55.479Z,1.27
2023-08-17T15:22:24.097Z,1.80
2023-08-17T15:24:53.106Z,1.52
2023-08-17T15:27:21.756Z,1.38
2023-08-17T15:29:51.729Z,1.73
2023-08-17T15:32:20.452Z,1.50
2023-08-17T15:34:49.157Z,2.42
2023-08-17T15:37:17.790Z,1.25
2023-08-17T15:39:46.406Z,1.70
2023-08-17T15:42:15.014Z,1.20
2023-08-17T15:44:43.602Z,1.60
2023-08-17T15:47:13.602Z,1.42
2023-08-17T15:49:42.178Z,1.50
2023-08-17T15:52:12.443Z,1.60
2023-08-17T15:54:41.266Z,1.50
2023-08-17T15:57:10.828Z,1.40
2023-08-17T15:59:40.188Z,1.50
2023-08-17T16:02:09.682Z,1.35
2023-08-17T16:04:39.463Z,1.30
2023-08-17T16:07:08.131Z,1.88
2023-08-17T16:09:36.867Z,1.75
2023-08-17T16:12:05.973Z,1.20
2023-08-17T16:14:35.170Z,1.20
2023-08-17T16:17:04.655Z,1.35
2023-08-17T16:19:33.258Z,1.33
2023-08-17T16:22:03.279Z,1.60
2023-08-17T16:24:32.162Z,1.23
2023-08-17T16:27:00.552Z,1.40
2023-08-17T16:29:29.179Z,1.50
2023-08-17T16:32:09.184Z,1.13
2023-08-17T16:34:40.039Z,1.35
2023-08-17T16:37:10.008Z,1.38
2023-08-17T16:39:38.622Z,1.35
2023-08-17T16:42:07.612Z,1.20
2023-08-17T16:44:36.240Z,1.48
2023-08-17T16:47:04.620Z,1.40
2023-08-17T16:49:33.285Z,1.48
2023-08-17T16:52:01.932Z,1.58
2023-08-17T16:54:33.617Z,1.58
2023-08-17T16:57:02.279Z,1.50
2023-08-17T16:59:30.630Z,1.63
2023-08-17T17:02:00.227Z,1.30
2023-08-17T17:04:28.976Z,1.15
2023-08-17T17:06:57.632Z,1.60
2023-08-17T17:09:26.495Z,1.45
2023-08-17T17:11:56.546Z,1.30
2023-08-17T17:14:25.146Z,1.33
2023-08-17T17:16:53.794Z,1.55
2023-08-17T17:19:22.432Z,1.77
2023-08-17T17:21:51.049Z,1.42
2023-08-17T17:24:19.390Z,1.42
2023-08-17T17:26:52.873Z,1.55
2023-08-17T17:29:23.018Z,1.58
2023-08-17T17:31:51.970Z,1.65
2023-08-17T17:34:21.750Z,1.50
2023-08-17T17:36:50.406Z,1.70
2023-08-17T17:39:19.141Z,2.13
2023-08-17T17:41:47.830Z,1.67
2023-08-17T17:44:16.990Z,1.60
2023-08-17T17:46:47.094Z,1.77
2023-08-17T17:49:15.780Z,1.90
2023-08-17T17:51:45.986Z,1.98
2023-08-17T17:54:14.719Z,2.00
2023-08-17T17:56:45.257Z,2.53
2023-08-17T17:59:14.995Z,1.98
2023-08-17T18:01:43.593Z,2.25
2023-08-17T18:04:13.697Z,1.90
2023-08-17T18:06:42.998Z,1.95
2023-08-17T18:09:11.751Z,2.08
2023-08-17T18:11:40.589Z,2.30
2023-08-17T18:14:09.611Z,2.17
2023-08-17T18:16:38.216Z,1.90
2023-08-17T18:19:06.665Z,2.15
2023-08-17T18:21:36.633Z,2.22
2023-08-17T18:24:05.773Z,2.40
2023-08-17T18:26:34.446Z,2.15
2023-08-17T18:29:04.200Z,2.30
2023-08-17T18:31:33.042Z,2.05
2023-08-17T18:34:01.659Z,2.38
2023-08-17T18:36:30.286Z,2.00
2023-08-17T18:39:00.080Z,2.40
2023-08-17T18:41:28.847Z,2.08
2023-08-17T18:43:57.173Z,2.10
2023-08-17T18:46:26.017Z,2.00
2023-08-17T18:48:54.709Z,2.10
2023-08-17T18:51:23.408Z,2.15
2023-08-17T18:53:52.021Z,2.20
2023-08-17T18:56:22.010Z,2.53
2023-08-17T18:58:50.615Z,2.05
2023-08-17T19:01:19.296Z,2.20
2023-08-17T19:03:48.035Z,2.58
2023-08-17T19:06:16.722Z,1.92
2023-08-17T19:08:45.325Z,2.22
2023-08-17T19:11:13.962Z,2.25
2023-08-17T19:13:43.937Z,2.38
2023-08-17T19:16:12.710Z,2.20
2023-08-17T19:18:41.345Z,2.17
2023-08-17T19:21:09.993Z,2.45
2023-08-17T19:23:38.592Z,2.25
2023-08-17T19:26:07.847Z,1.90
2023-08-17T19:28:36.454Z,2.42
2023-08-17T19:31:06.478Z,2.20
2023-08-17T19:33:35.277Z,2.40
2023-08-17T19:36:03.965Z,2.25
2023-08-17T19:38:32.582Z,2.40
2023-08-17T19:41:02.063Z,2.47
2023-08-17T19:43:30.696Z,2.10
2023-08-17T19:45:59.345Z,2.03
2023-08-17T19:48:29.409Z,2.42
2023-08-17T19:50:58.026Z,2.03
2023-08-17T19:53:26.681Z,2.42
2023-08-17T19:56:00.036Z,2.47
2023-08-17T19:58:29.001Z,2.42
2023-08-17T20:01:05.361Z,1.83
2023-08-17T20:03:36.067Z,2.00
2023-08-17T20:06:06.527Z,2.85
2023-08-17T20:08:35.188Z,2.00
2023-08-17T20:11:10.471Z,2.20
2023-08-17T20:13:39.449Z,2.38
2023-08-17T20:16:09.315Z,2.28
2023-08-17T20:18:39.458Z,1.92
2023-08-17T20:21:08.747Z,2.50
2023-08-17T20:23:37.365Z,1.95
2023-08-17T20:26:06.352Z,2.10
2023-08-17T20:28:35.218Z,2.20
2023-08-17T20:31:05.152Z,1.90
2023-08-17T20:33:34.125Z,2.50
2023-08-17T20:36:04.283Z,1.95
2023-08-17T20:38:32.908Z,2.30
2023-08-17T20:41:05.497Z,2.20
2023-08-17T20:43:34.269Z,2.38
2023-08-17T20:46:03.150Z,1.92
2023-08-17T20:48:31.816Z,2.30
2023-08-17T20:51:01.774Z,2.28
2023-08-17T20:53:31.798Z,1.65
2023-08-17T20:56:00.413Z,2.17
2023-08-17T20:58:29.070Z,2.47
2023-08-17T21:00:59.602Z,2.25
2023-08-17T21:03:28.403Z,2.00
2023-08-17T21:06:03.373Z,2.30
2023-08-17T21:08:33.612Z,1.77
2023-08-17T21:11:02.259Z,2.15
2023-08-17T21:13:31.296Z,2.22
2023-08-17T21:16:06.714Z,2.33
2023-08-17T21:18:35.827Z,2.28
2023-08-17T21:21:04.906Z,2.33
2023-08-17T21:23:36.205Z,2.25
2023-08-17T21:26:04.881Z,2.03
2023-08-17T21:28:34.191Z,2.45
2023-08-17T21:31:04.527Z,1.80
2023-08-17T21:33:34.938Z,2.20
2023-08-17T21:36:04.597Z,2.47
2023-08-17T21:38:34.608Z,2.40
2023-08-17T21:41:05.406Z,1.88
2023-08-17T21:43:34.535Z,2.08
2023-08-17T21:46:03.373Z,1.75
2023-08-17T21:48:32.127Z,1.83
2023-08-17T21:51:03.270Z,2.80
2023-08-17T21:53:31.982Z,2.10
2023-08-17T21:56:01.956Z,2.13
2023-08-17T21:58:30.631Z,2.30
2023-08-17T22:00:59.354Z,1.83
2023-08-17T22:03:28.172Z,2.13
2023-08-17T22:05:57.589Z,1.92
2023-08-17T22:08:26.055Z,2.05
2023-08-17T22:10:54.658Z,2.10
2023-08-17T22:13:24.694Z,2.45
2023-08-17T22:15:53.361Z,2.78
2023-08-17T22:18:22.044Z,2.40
2023-08-17T22:20:50.840Z,2.03
2023-08-17T22:23:19.576Z,2.70
2023-08-17T22:25:48.488Z,2.33
2023-08-17T22:28:17.114Z,2.53
2023-08-17T22:30:47.240Z,2.38
2023-08-17T22:33:15.909Z,2.65
2023-08-17T22:35:44.521Z,2.65
2023-08-17T22:38:13.148Z,2.25
2023-08-17T22:40:41.751Z,2.55
2023-08-17T22:43:10.357Z,2.75
2023-08-17T22:45:39.003Z,2.10
2023-08-17T22:48:09.292Z,2.10
2023-08-17T22:50:38.163Z,2.83
2023-08-17T22:53:06.945Z,2.25
2023-08-17T22:55:35.909Z,2.90
2023-08-17T22:58:04.634Z,2.55
2023-08-17T23:00:33.015Z,2.28
2023-08-17T23:03:01.742Z,2.50
2023-08-17T23:05:32.778Z,2.60
2023-08-17T23:08:01.563Z,2.58
2023-08-17T23:10:30.179Z,2.25
2023-08-17T23:12:58.885Z,2.40
2023-08-17T23:15:28.632Z,2.92
2023-08-17T23:17:57.461Z,2.33
2023-08-17T23:20:26.235Z,2.83
2023-08-17T23:22:56.275Z,2.65
2023-08-17T23:25:26.095Z,2.70
2023-08-17T23:27:54.782Z,2.60
2023-08-17T23:30:23.479Z,2.70
2023-08-17T23:32:55.663Z,2.45
2023-08-17T23:35:24.560Z,2.35
2023-08-17T23:37:53.183Z,2.75
2023-08-17T23:40:23.273Z,2.58
2023-08-17T23:42:51.869Z,2.42
2023-08-17T23:45:21.068Z,2.55
2023-08-17T23:47:49.760Z,3.10
2023-08-17T23:50:18.441Z,2.80
2023-08-17T23:52:47.070Z,2.50
2023-08-17T23:55:15.905Z,2.22
2023-08-17T23:57:45.902Z,2.88
